African Teist — 3EVP5 — position and weather

sailwx.info

Track history (hours):
 
Tides and Currents Weather Stations Pressure Air Temp Water Temp Dewpoint Dewpoint Depression Visibility Wind Speed Wind Dir Waves Ship Positions

African Teist

Last reported at 2017-Dec-13 08:04 UTC. Time now 2018-Feb-18 09:07 UTC.
Position S 39°08' E 144°33'.
Warning: this ship's position is months out of date.

Length 179 m; draft 10 m.

Type: Cargo ship. MMSI: 354527000.

Date/timePositionNaut miles runAvg speedWind from/ knotsBaromVisibWave heightAir tempDewpointWater temp
2017-Dec-13 08:04S 39°08' E 144°33'114.0
2017-Dec-13 08:00S 39°08' E 144°34'713.6
2017-Dec-13 07:28S 39°09' E 144°43'613.6
2017-Dec-13 07:00S 39°09' E 144°52'913.7
2017-Dec-13 06:21S 39°10' E 145°03'1913.9
2017-Dec-13 04:58S 39°11' E 145°28'614.0
2017-Dec-13 04:30S 39°11' E 145°36'714.3
2017-Dec-13 04:00S 39°11' E 145°45'713.9
2017-Dec-13 03:30S 39°12' E 145°54'714.2
2017-Dec-13 03:00S 39°12' E 146°03'814.1
2017-Dec-13 02:28S 39°12' E 146°13'613.6
2017-Dec-13 02:00S 39°12' E 146°21'713.8
2017-Dec-13 01:30S 39°09' E 146°30'713.5
2017-Dec-13 01:00S 39°07' E 146°38'1213.4
2017-Dec-13 00:08S 39°03' E 146°52'214.0
2017-Dec-12 23:59S 39°03' E 146°55'713.5
2017-Dec-12 23:30S 39°01' E 147°03'713.3
2017-Dec-12 23:00S 38°59' E 147°11'713.7
2017-Dec-12 22:29S 38°56' E 147°19'713.9
2017-Dec-12 21:59S 38°54' E 147°28'714.1
2017-Dec-12 21:29S 38°52' E 147°37'714.3
2017-Dec-12 21:00S 38°50' E 147°45'714.4
2017-Dec-12 20:30S 38°48' E 147°54'814.6
2017-Dec-12 19:58S 38°45' E 148°03'714.4
2017-Dec-12 19:30S 38°43' E 148°11'714.7
2017-Dec-12 19:00S 38°40' E 148°20'714.3
2017-Dec-12 18:30S 38°37' E 148°28'713.6
2017-Dec-12 18:00S 38°34' E 148°36'813.4
2017-Dec-12 17:26S 38°29' E 148°44'713.6
2017-Dec-12 16:56S 38°26' E 148°51'613.1
2017-Dec-12 16:27S 38°22' E 148°58'913.8
2017-Dec-12 15:50S 38°17' E 149°07'714.1
2017-Dec-12 15:19S 38°13' E 149°14'414.1
2017-Dec-12 15:00S 38°10' E 149°19'1014.0
2017-Dec-12 14:19S 38°05' E 149°29'413.8
2017-Dec-12 14:00S 38°03' E 149°34'713.9
2017-Dec-12 13:30S 37°59' E 149°41'713.7
2017-Dec-12 12:58S 37°55' E 149°49'1413.9
2017-Dec-12 11:56S 37°47' E 150°04'  
Track history (hours):
 
Tides and Currents Weather Stations Pressure Air Temp Water Temp Dewpoint Dewpoint Depression Visibility Wind Speed Wind Dir Waves Ship Positions

African Teist

Last reported at 2017-Dec-13 08:04 UTC. Time now 2018-Feb-18 09:07 UTC.
Position S 39°08' E 144°33'.
Warning: this ship's position is months out of date.

Length 179 m; draft 10 m.

Type: Cargo ship. MMSI: 354527000.

Date/timePositionNaut miles runAvg speedWind from/ knotsBaromVisibWave heightAir tempDewpointWater temp
2017-Dec-13 08:04S 39°08' E 144°33'114.0
2017-Dec-13 08:00S 39°08' E 144°34'713.6
2017-Dec-13 07:28S 39°09' E 144°43'613.6
2017-Dec-13 07:00S 39°09' E 144°52'913.7
2017-Dec-13 06:21S 39°10' E 145°03'1913.9
2017-Dec-13 04:58S 39°11' E 145°28'614.0
2017-Dec-13 04:30S 39°11' E 145°36'714.3
2017-Dec-13 04:00S 39°11' E 145°45'713.9
2017-Dec-13 03:30S 39°12' E 145°54'714.2
2017-Dec-13 03:00S 39°12' E 146°03'814.1
2017-Dec-13 02:28S 39°12' E 146°13'613.6
2017-Dec-13 02:00S 39°12' E 146°21'713.8
2017-Dec-13 01:30S 39°09' E 146°30'713.5
2017-Dec-13 01:00S 39°07' E 146°38'1213.4
2017-Dec-13 00:08S 39°03' E 146°52'214.0
2017-Dec-12 23:59S 39°03' E 146°55'713.5
2017-Dec-12 23:30S 39°01' E 147°03'713.3
2017-Dec-12 23:00S 38°59' E 147°11'713.7
2017-Dec-12 22:29S 38°56' E 147°19'713.9
2017-Dec-12 21:59S 38°54' E 147°28'714.1
2017-Dec-12 21:29S 38°52' E 147°37'714.3
2017-Dec-12 21:00S 38°50' E 147°45'714.4
2017-Dec-12 20:30S 38°48' E 147°54'814.6
2017-Dec-12 19:58S 38°45' E 148°03'714.4
2017-Dec-12 19:30S 38°43' E 148°11'714.7
2017-Dec-12 19:00S 38°40' E 148°20'714.3
2017-Dec-12 18:30S 38°37' E 148°28'713.6
2017-Dec-12 18:00S 38°34' E 148°36'813.4
2017-Dec-12 17:26S 38°29' E 148°44'713.6
2017-Dec-12 16:56S 38°26' E 148°51'613.1
2017-Dec-12 16:27S 38°22' E 148°58'913.8
2017-Dec-12 15:50S 38°17' E 149°07'714.1
2017-Dec-12 15:19S 38°13' E 149°14'414.1
2017-Dec-12 15:00S 38°10' E 149°19'1014.0
2017-Dec-12 14:19S 38°05' E 149°29'413.8
2017-Dec-12 14:00S 38°03' E 149°34'713.9
2017-Dec-12 13:30S 37°59' E 149°41'713.7
2017-Dec-12 12:58S 37°55' E 149°49'1413.9
2017-Dec-12 11:56S 37°47' E 150°04'  

Dump ship's entire track history